createdAt,value
2022-10-25T00:01:00.908Z,30.98
2022-10-25T00:03:27.854Z,30.33
2022-10-25T00:05:54.802Z,37.58
2022-10-25T00:08:21.755Z,37.78
2022-10-25T00:10:48.725Z,32.72
2022-10-25T00:13:15.678Z,27.83
2022-10-25T00:15:43.988Z,32.17
2022-10-25T00:18:10.912Z,41.70
2022-10-25T00:20:38.621Z,36.88
2022-10-25T00:23:05.633Z,24.90
2022-10-25T00:25:32.611Z,28.80
2022-10-25T00:27:59.551Z,32.63
2022-10-25T00:30:26.489Z,24.00
2022-10-25T00:32:53.893Z,28.90
2022-10-25T00:35:20.991Z,29.75
2022-10-25T00:37:47.934Z,27.80
2022-10-25T00:40:14.954Z,30.98
2022-10-25T00:42:42.056Z,36.28
2022-10-25T00:45:27.072Z,28.25
2022-10-25T00:48:04.458Z,35.50
2022-10-25T00:50:43.172Z,27.92
2022-10-25T00:53:18.488Z,34.80
2022-10-25T00:55:49.021Z,40.67
2022-10-25T00:58:20.690Z,35.45
2022-10-25T01:00:49.150Z,30.80
2022-10-25T01:03:18.326Z,24.13
2022-10-25T01:05:45.489Z,31.27
2022-10-25T01:08:13.338Z,33.13
2022-10-25T01:10:40.498Z,37.58
2022-10-25T01:13:07.735Z,33.78
2022-10-25T01:15:46.990Z,26.08
2022-10-25T01:18:25.799Z,31.45
2022-10-25T01:21:16.309Z,28.67
2022-10-25T01:24:04.667Z,28.10
2022-10-25T01:26:46.666Z,25.48
2022-10-25T01:29:22.703Z,26.63
2022-10-25T01:31:54.408Z,28.77
2022-10-25T01:34:25.587Z,27.17
2022-10-25T01:37:03.331Z,31.52
2022-10-25T01:39:40.387Z,28.73
2022-10-25T01:42:25.425Z,31.35
2022-10-25T01:45:02.286Z,33.13
2022-10-25T01:47:29.150Z,23.50
2022-10-25T01:50:11.451Z,26.10
2022-10-25T01:52:38.572Z,26.25
2022-10-25T01:55:11.012Z,22.40
2022-10-25T01:57:46.235Z,25.08
2022-10-25T02:00:20.112Z,26.52
2022-10-25T02:03:14.851Z,29.85
2022-10-25T02:05:44.841Z,28.92
2022-10-25T02:08:29.340Z,31.90
2022-10-25T02:11:20.649Z,24.58
2022-10-25T02:14:11.895Z,33.53
2022-10-25T02:17:05.066Z,28.92
2022-10-25T02:19:40.235Z,21.20
2022-10-25T02:22:10.647Z,23.02
2022-10-25T02:24:40.813Z,24.35
2022-10-25T02:27:11.235Z,21.25
2022-10-25T02:29:40.172Z,27.38
2022-10-25T02:32:07.315Z,30.70
2022-10-25T02:34:34.796Z,22.70
2022-10-25T02:37:01.946Z,25.83
2022-10-25T02:39:31.513Z,27.63
2022-10-25T02:42:02.744Z,26.60
2022-10-25T02:46:56.617Z,25.77
2022-10-25T02:49:23.563Z,35.95
2022-10-25T02:54:18.481Z,37.55
2022-10-25T02:56:45.426Z,36.58
2022-10-25T02:59:15.924Z,42.63
2022-10-25T03:01:42.932Z,41.90
2022-10-25T03:04:09.892Z,37.40
2022-10-25T03:06:36.894Z,38.15
2022-10-25T03:09:04.519Z,47.83
2022-10-25T03:11:31.466Z,38.20
2022-10-25T03:13:58.410Z,29.77
2022-10-25T03:16:25.473Z,37.85
2022-10-25T03:18:52.367Z,30.75
2022-10-25T03:21:19.314Z,43.35
2022-10-25T03:23:46.443Z,32.45
2022-10-25T03:26:13.425Z,44.17
2022-10-25T03:28:40.334Z,44.00
2022-10-25T03:31:13.473Z,50.50
2022-10-25T03:33:41.150Z,45.90
2022-10-25T03:36:08.856Z,35.53
2022-10-25T03:38:35.825Z,37.75
2022-10-25T03:41:02.846Z,50.92
2022-10-25T03:43:29.843Z,45.28
2022-10-25T03:45:56.917Z,29.75
2022-10-25T03:48:23.931Z,42.42
2022-10-25T03:50:50.867Z,30.27
2022-10-25T03:53:17.719Z,31.77
2022-10-25T03:55:44.664Z,33.95
2022-10-25T03:58:11.651Z,36.08
2022-10-25T04:00:39.064Z,32.72
2022-10-25T04:05:33.891Z,37.55
2022-10-25T04:08:00.863Z,27.23
2022-10-25T04:10:28.096Z,31.98
2022-10-25T04:12:55.399Z,34.30
2022-10-25T04:15:23.637Z,37.58
2022-10-25T04:17:54.086Z,33.63
2022-10-25T04:20:21.821Z,41.38
2022-10-25T04:22:57.006Z,38.17
2022-10-25T04:25:25.431Z,38.20
2022-10-25T04:27:52.352Z,33.33
2022-10-25T04:30:19.570Z,45.75
2022-10-25T04:32:46.852Z,28.15
2022-10-25T04:35:14.247Z,28.98
2022-10-25T04:37:41.271Z,30.55
2022-10-25T04:40:08.982Z,30.52
2022-10-25T04:42:36.162Z,26.33
2022-10-25T04:45:03.240Z,36.85
2022-10-25T04:47:34.147Z,34.50
2022-10-25T04:50:01.323Z,26.00
2022-10-25T04:52:32.294Z,27.45
2022-10-25T04:55:00.488Z,25.05
2022-10-25T04:57:27.471Z,24.90
2022-10-25T04:59:54.540Z,26.13
2022-10-25T05:02:21.437Z,31.60
2022-10-25T05:04:48.345Z,35.10
2022-10-25T05:07:18.985Z,30.13
2022-10-25T05:09:47.500Z,26.75
2022-10-25T05:12:15.388Z,34.05
2022-10-25T05:14:42.404Z,32.05
2022-10-25T05:17:09.363Z,34.38
2022-10-25T05:19:36.313Z,35.28
2022-10-25T05:22:03.519Z,35.30
2022-10-25T05:24:30.646Z,29.90
2022-10-25T05:26:57.562Z,30.20
2022-10-25T05:29:24.611Z,23.98
2022-10-25T05:31:51.650Z,34.85
2022-10-25T05:34:18.711Z,32.38
2022-10-25T05:36:45.717Z,27.17
2022-10-25T05:39:12.610Z,28.60
2022-10-25T05:41:39.661Z,25.80
2022-10-25T05:44:06.846Z,24.92
2022-10-25T05:46:34.034Z,28.27
2022-10-25T05:49:01.262Z,23.60
2022-10-25T05:51:36.774Z,21.08
2022-10-25T05:54:10.087Z,30.80
2022-10-25T05:56:37.809Z,32.60
2022-10-25T05:59:10.115Z,27.20
2022-10-25T06:01:47.396Z,23.23
2022-10-25T06:04:15.574Z,23.88
2022-10-25T06:06:44.307Z,25.52
2022-10-25T06:09:11.810Z,23.83
2022-10-25T06:11:39.983Z,27.70
2022-10-25T06:14:07.556Z,28.30
2022-10-25T06:16:34.574Z,27.30
2022-10-25T06:19:01.568Z,28.75
2022-10-25T06:21:30.255Z,26.00
2022-10-25T06:23:59.432Z,26.00
2022-10-25T06:26:28.878Z,27.25
2022-10-25T06:29:01.483Z,29.73
2022-10-25T06:31:29.855Z,23.88
2022-10-25T06:33:56.994Z,28.17
2022-10-25T06:36:27.270Z,25.33
2022-10-25T06:38:54.970Z,24.27
2022-10-25T06:41:24.987Z,27.65
2022-10-25T06:43:52.297Z,24.45
2022-10-25T06:46:28.580Z,24.45
2022-10-25T06:48:57.227Z,29.10
2022-10-25T06:51:26.043Z,26.65
2022-10-25T06:53:57.869Z,23.92
2022-10-25T06:56:26.044Z,27.88
2022-10-25T06:58:53.241Z,27.70
2022-10-25T07:01:22.341Z,27.92
2022-10-25T07:03:51.240Z,30.92
2022-10-25T07:06:22.853Z,28.65
2022-10-25T07:08:53.855Z,27.77
2022-10-25T07:11:21.703Z,28.30
2022-10-25T07:13:48.732Z,30.38
2022-10-25T07:16:18.100Z,32.55
2022-10-25T07:18:45.580Z,25.77
2022-10-25T07:21:22.952Z,25.55
2022-10-25T07:23:51.393Z,32.03
2022-10-25T07:26:21.781Z,32.40
2022-10-25T07:28:52.437Z,30.75
2022-10-25T07:31:25.308Z,28.55
2022-10-25T07:33:53.974Z,28.38
2022-10-25T07:36:21.331Z,28.77
2022-10-25T07:38:48.483Z,30.58
2022-10-25T07:41:15.770Z,29.80
2022-10-25T07:43:42.708Z,29.45
2022-10-25T07:46:09.768Z,31.05
2022-10-25T07:48:37.745Z,30.15
2022-10-25T07:51:13.945Z,30.60
2022-10-25T07:53:41.094Z,31.00
2022-10-25T07:56:13.089Z,32.03
2022-10-25T07:58:41.017Z,35.53
2022-10-25T08:01:10.162Z,32.22
2022-10-25T08:03:37.807Z,31.90
2022-10-25T08:06:05.281Z,32.50
2022-10-25T08:08:32.701Z,28.23
2022-10-25T08:11:00.028Z,30.00
2022-10-25T08:13:26.930Z,33.10
2022-10-25T08:15:55.867Z,28.80
2022-10-25T08:18:24.021Z,29.05
2022-10-25T08:21:02.343Z,26.48
2022-10-25T08:23:32.092Z,29.13
2022-10-25T08:25:59.723Z,28.48
2022-10-25T08:28:26.917Z,26.10
2022-10-25T08:30:55.761Z,27.60
2022-10-25T08:33:23.758Z,24.10
2022-10-25T08:35:50.922Z,25.77
2022-10-25T08:38:18.666Z,25.67
2022-10-25T08:41:14.755Z,25.58
2022-10-25T08:44:09.923Z,25.92
2022-10-25T08:46:48.915Z,24.02
2022-10-25T08:49:45.467Z,23.33
2022-10-25T08:52:28.821Z,24.70
2022-10-25T08:55:01.753Z,27.02
2022-10-25T08:57:34.826Z,24.45
2022-10-25T09:00:07.763Z,23.33
2022-10-25T09:02:34.837Z,24.23
2022-10-25T09:05:01.927Z,24.77
2022-10-25T09:07:42.740Z,23.50
2022-10-25T09:10:24.594Z,23.30
2022-10-25T09:13:15.001Z,23.75
2022-10-25T09:15:43.144Z,23.83
2022-10-25T09:18:23.699Z,22.98
2022-10-25T09:20:52.605Z,23.67
2022-10-25T09:23:31.591Z,25.77
2022-10-25T09:26:15.719Z,24.05
2022-10-25T09:28:54.785Z,24.48
2022-10-25T09:31:26.109Z,26.75
2022-10-25T09:34:11.893Z,23.65
2022-10-25T09:36:46.512Z,27.25
2022-10-25T09:39:26.030Z,23.63
2022-10-25T09:41:57.482Z,25.25
2022-10-25T09:44:30.640Z,24.63
2022-10-25T09:47:03.639Z,23.90
2022-10-25T09:49:49.535Z,24.63
2022-10-25T09:52:40.881Z,23.35
2022-10-25T09:55:26.638Z,23.15
2022-10-25T09:57:54.544Z,23.70
2022-10-25T10:00:24.699Z,22.08
2022-10-25T10:02:51.864Z,24.75
2022-10-25T10:05:21.598Z,22.15
2022-10-25T10:07:50.410Z,23.88
2022-10-25T10:10:25.527Z,25.53
2022-10-25T10:13:29.385Z,23.08
2022-10-25T10:16:16.310Z,23.88
2022-10-25T10:18:44.755Z,24.00
2022-10-25T10:21:11.661Z,24.10
2022-10-25T10:23:45.121Z,23.63
2022-10-25T10:26:21.897Z,25.95
2022-10-25T10:28:51.517Z,24.75
2022-10-25T10:31:20.533Z,24.90
2022-10-25T10:33:49.669Z,24.20
2022-10-25T10:36:24.286Z,22.55
2022-10-25T10:38:51.866Z,21.25
2022-10-25T10:41:28.018Z,22.30
2022-10-25T10:44:14.487Z,22.92
2022-10-25T10:46:48.048Z,20.70
2022-10-25T10:49:16.416Z,21.90
2022-10-25T10:51:45.997Z,18.85
2022-10-25T10:54:14.073Z,19.70
2022-10-25T10:56:41.116Z,18.40
2022-10-25T10:59:25.909Z,19.73
2022-10-25T11:01:53.260Z,17.05
2022-10-25T11:04:21.860Z,16.33
2022-10-25T11:06:49.897Z,17.70
2022-10-25T11:09:23.943Z,14.77
2022-10-25T11:12:26.567Z,14.18
2022-10-25T11:14:56.052Z,13.15
2022-10-25T11:17:30.300Z,12.20
2022-10-25T11:20:06.227Z,11.70
2022-10-25T11:22:48.326Z,11.85
2022-10-25T11:25:36.143Z,11.18
2022-10-25T11:28:17.046Z,8.75
2022-10-25T11:31:05.846Z,8.27
2022-10-25T11:34:05.598Z,7.40
2022-10-25T11:36:37.751Z,8.15
2022-10-25T11:39:19.827Z,6.97
2022-10-25T11:41:53.855Z,7.22
2022-10-25T11:45:04.871Z,6.63
2022-10-25T11:50:55.156Z,6.75
2022-10-25T11:53:47.427Z,6.43
2022-10-25T11:57:02.100Z,5.97
2022-10-25T12:00:12.532Z,5.68
2022-10-25T12:02:58.129Z,5.63
2022-10-25T12:05:37.169Z,5.63
2022-10-25T12:08:07.069Z,5.88
2022-10-25T12:10:43.296Z,6.10
2022-10-25T12:13:34.485Z,5.50
2022-10-25T12:16:05.219Z,5.47
2022-10-25T12:21:16.701Z,4.78
2022-10-25T12:23:47.191Z,5.00
2022-10-25T12:26:25.744Z,4.63
2022-10-25T12:28:53.211Z,5.30
2022-10-25T12:31:22.735Z,5.13
2022-10-25T12:33:59.053Z,4.63
2022-10-25T12:36:36.689Z,4.60
2022-10-25T12:39:13.714Z,4.95
2022-10-25T12:41:45.590Z,5.22
2022-10-25T12:44:18.145Z,5.22
2022-10-25T12:46:53.811Z,5.10
2022-10-25T12:49:39.642Z,4.72
2022-10-25T12:52:31.766Z,4.85
2022-10-25T12:55:23.183Z,4.90
2022-10-25T12:58:08.746Z,5.13
2022-10-25T13:00:56.773Z,5.63
2022-10-25T13:03:29.321Z,4.88
2022-10-25T13:06:11.621Z,5.35
2022-10-25T13:08:40.534Z,5.85
2022-10-25T13:11:09.635Z,5.63
2022-10-25T13:13:40.501Z,5.65
2022-10-25T13:16:11.289Z,5.57
2022-10-25T13:21:11.850Z,5.80
2022-10-25T13:23:51.844Z,5.20
2022-10-25T13:26:21.368Z,5.38
2022-10-25T13:28:53.851Z,5.40
2022-10-25T13:31:35.874Z,5.72
2022-10-25T13:34:15.159Z,4.82
2022-10-25T13:36:59.366Z,5.10
2022-10-25T13:39:43.146Z,5.15
2022-10-25T13:42:16.371Z,4.90
2022-10-25T13:45:02.358Z,5.22
2022-10-25T13:47:38.270Z,5.38
2022-10-25T13:50:30.181Z,5.53
2022-10-25T13:53:03.090Z,7.15
2022-10-25T13:55:35.821Z,8.73
2022-10-25T13:58:23.207Z,8.45
2022-10-25T14:00:53.691Z,7.60
2022-10-25T14:03:35.213Z,7.90
2022-10-25T14:06:02.134Z,6.43
2022-10-25T14:08:43.737Z,5.20
2022-10-25T14:11:27.138Z,4.85
2022-10-25T14:14:02.215Z,5.85
2022-10-25T14:16:33.175Z,6.75
2022-10-25T14:19:06.580Z,4.70
2022-10-25T14:21:34.280Z,5.25
2022-10-25T14:24:07.832Z,5.70
2022-10-25T14:26:34.796Z,5.18
2022-10-25T14:29:17.866Z,4.97
2022-10-25T14:31:45.687Z,4.97
2022-10-25T14:34:24.315Z,5.07
2022-10-25T14:36:57.677Z,5.82
2022-10-25T14:39:28.399Z,5.78
2022-10-25T14:44:32.862Z,5.72
2022-10-25T14:47:00.747Z,5.70
2022-10-25T14:49:29.260Z,5.72
2022-10-25T14:52:03.318Z,6.32
2022-10-25T14:54:34.236Z,5.93
2022-10-25T14:57:05.185Z,6.00
2022-10-25T14:59:48.701Z,6.57
2022-10-25T15:02:20.592Z,7.10
2022-10-25T15:04:50.275Z,8.13
2022-10-25T15:07:22.805Z,7.80
2022-10-25T15:09:51.666Z,8.80
2022-10-25T15:12:22.814Z,8.68
2022-10-25T15:14:54.761Z,8.55
2022-10-25T15:17:31.249Z,8.25
2022-10-25T15:20:07.117Z,9.63
2022-10-25T15:22:39.794Z,8.77
2022-10-25T15:25:24.835Z,9.15
2022-10-25T15:27:57.138Z,10.07
2022-10-25T15:30:38.190Z,9.45
2022-10-25T15:33:09.807Z,9.05
2022-10-25T15:35:47.100Z,9.00
2022-10-25T15:38:14.276Z,10.50
2022-10-25T15:40:42.368Z,9.73
2022-10-25T15:43:09.294Z,11.30
2022-10-25T15:45:38.141Z,13.32
2022-10-25T15:48:14.546Z,15.00
2022-10-25T15:50:47.976Z,15.27
2022-10-25T15:53:14.926Z,22.23
2022-10-25T15:55:42.738Z,23.10
2022-10-25T15:58:10.800Z,25.95
2022-10-25T16:00:38.106Z,21.90
2022-10-25T16:03:06.302Z,17.70
2022-10-25T16:05:37.004Z,16.38
2022-10-25T16:10:32.470Z,23.95
2022-10-25T16:13:04.956Z,30.20
2022-10-25T16:15:32.869Z,35.92
2022-10-25T16:17:59.758Z,31.73
2022-10-25T16:20:29.439Z,29.88
2022-10-25T16:22:57.428Z,29.23
2022-10-25T16:25:30.517Z,27.20
2022-10-25T16:28:01.400Z,31.13
2022-10-25T16:30:34.170Z,31.35
2022-10-25T16:33:01.326Z,37.00
2022-10-25T16:35:28.252Z,30.95
2022-10-25T16:37:55.182Z,33.55
2022-10-25T16:40:22.587Z,36.72
2022-10-25T16:42:50.058Z,34.03
2022-10-25T16:45:28.098Z,30.92
2022-10-25T16:47:57.039Z,29.27
2022-10-25T16:50:29.686Z,29.85
2022-10-25T16:52:59.653Z,27.58
2022-10-25T16:55:29.084Z,26.90
2022-10-25T16:57:59.320Z,26.10
2022-10-25T17:00:27.746Z,25.33
2022-10-25T17:02:54.938Z,31.30
2022-10-25T17:05:24.463Z,29.60
2022-10-25T17:07:51.847Z,30.00
2022-10-25T17:10:20.318Z,29.55
2022-10-25T17:12:50.058Z,33.47
2022-10-25T17:15:18.141Z,37.20
2022-10-25T17:17:46.872Z,45.35
2022-10-25T17:20:16.033Z,42.58
2022-10-25T17:22:43.722Z,40.35
2022-10-25T17:25:11.636Z,33.55
2022-10-25T17:27:40.800Z,45.95
2022-10-25T17:30:10.543Z,39.75
2022-10-25T17:32:38.296Z,38.13
2022-10-25T17:35:08.527Z,40.22
2022-10-25T17:37:36.017Z,38.35
2022-10-25T17:40:02.939Z,36.90
2022-10-25T17:42:30.005Z,38.00
2022-10-25T17:44:57.017Z,38.45
2022-10-25T17:47:24.146Z,26.73
2022-10-25T17:49:51.400Z,27.70
2022-10-25T17:52:18.334Z,27.35
2022-10-25T17:54:45.318Z,32.80
2022-10-25T17:57:12.404Z,32.92
2022-10-25T17:59:39.254Z,40.33
2022-10-25T18:02:06.339Z,46.60
2022-10-25T18:04:51.745Z,40.50
2022-10-25T18:07:20.096Z,40.83
2022-10-25T18:09:47.105Z,43.53
2022-10-25T18:12:14.093Z,50.28
2022-10-25T18:14:41.017Z,58.63
2022-10-25T18:17:08.007Z,53.75
2022-10-25T18:19:34.915Z,51.28
2022-10-25T18:22:04.507Z,36.58
2022-10-25T18:24:31.602Z,54.67
2022-10-25T18:26:59.078Z,55.25
2022-10-25T18:29:26.060Z,58.45
2022-10-25T18:31:52.979Z,56.03
2022-10-25T18:34:19.968Z,47.90
2022-10-25T18:36:46.934Z,56.45
2022-10-25T18:39:13.935Z,36.22
2022-10-25T18:41:44.562Z,24.50
2022-10-25T18:44:15.151Z,27.20
2022-10-25T18:46:42.972Z,22.52
2022-10-25T18:49:14.716Z,21.73
2022-10-25T18:51:42.282Z,21.17
2022-10-25T18:54:11.798Z,22.40
2022-10-25T18:56:38.764Z,21.50
2022-10-25T18:59:05.731Z,22.95
2022-10-25T19:01:33.314Z,21.33
2022-10-25T19:04:02.254Z,20.80
2022-10-25T19:06:29.962Z,25.05
2022-10-25T19:08:56.915Z,25.73
2022-10-25T19:11:24.361Z,25.27
2022-10-25T19:13:55.983Z,21.20
2022-10-25T19:16:23.942Z,29.23
2022-10-25T19:18:51.075Z,26.83
2022-10-25T19:21:18.896Z,25.13
2022-10-25T19:23:46.898Z,30.25
2022-10-25T19:26:19.869Z,33.40
2022-10-25T19:28:47.373Z,32.42
2022-10-25T19:31:16.801Z,37.58
2022-10-25T19:33:49.103Z,28.83
2022-10-25T19:36:17.545Z,33.95
2022-10-25T19:38:51.124Z,31.25
2022-10-25T19:41:20.864Z,31.50
2022-10-25T19:43:48.063Z,30.38
2022-10-25T19:46:15.768Z,27.58
2022-10-25T19:48:43.019Z,23.23
2022-10-25T19:51:18.843Z,22.83
2022-10-25T19:53:46.450Z,22.52
2022-10-25T19:56:17.768Z,18.83
2022-10-25T19:58:44.819Z,17.95
2022-10-25T20:01:29.573Z,17.75
2022-10-25T20:03:58.499Z,18.00
2022-10-25T20:06:31.058Z,18.02
2022-10-25T20:08:59.760Z,20.10
2022-10-25T20:11:27.745Z,18.88
2022-10-25T20:13:55.984Z,20.25
2022-10-25T20:16:23.675Z,20.58
2022-10-25T20:18:51.122Z,22.10
2022-10-25T20:21:21.113Z,20.40
2022-10-25T20:23:53.302Z,20.70
2022-10-25T20:26:23.417Z,16.92
2022-10-25T20:28:53.559Z,15.85
2022-10-25T20:31:23.268Z,16.35
2022-10-25T20:33:50.470Z,15.57
2022-10-25T20:36:18.116Z,14.68
2022-10-25T20:38:46.660Z,16.80
2022-10-25T20:41:17.094Z,16.50
2022-10-25T20:44:01.135Z,15.13
2022-10-25T20:46:29.072Z,16.02
2022-10-25T20:48:57.688Z,15.75
2022-10-25T20:51:24.693Z,15.70
2022-10-25T20:53:51.642Z,14.07
2022-10-25T20:56:20.600Z,17.02
2022-10-25T20:58:48.111Z,15.30
2022-10-25T21:01:15.316Z,17.27
2022-10-25T21:03:42.838Z,17.23
2022-10-25T21:06:14.715Z,17.88
2022-10-25T21:08:42.010Z,18.10
2022-10-25T21:11:12.097Z,19.92
2022-10-25T21:13:39.200Z,18.48
2022-10-25T21:16:14.744Z,17.98
2022-10-25T21:18:42.750Z,17.70
2022-10-25T21:21:15.831Z,16.85
2022-10-25T21:23:42.781Z,17.23
2022-10-25T21:26:10.423Z,19.42
2022-10-25T21:28:39.525Z,18.38
2022-10-25T21:31:17.015Z,17.15
2022-10-25T21:33:50.117Z,16.90
2022-10-25T21:36:19.401Z,18.75
2022-10-25T21:38:46.444Z,18.98
2022-10-25T21:41:20.991Z,16.45
2022-10-25T21:43:49.534Z,17.80
2022-10-25T21:46:18.308Z,19.42
2022-10-25T21:48:47.526Z,19.02
2022-10-25T21:51:15.227Z,19.80
2022-10-25T21:53:42.266Z,19.80
2022-10-25T21:56:12.390Z,17.77
2022-10-25T21:58:40.564Z,17.45
2022-10-25T22:01:12.731Z,19.50
2022-10-25T22:03:40.681Z,19.90
2022-10-25T22:06:09.386Z,19.15
2022-10-25T22:08:36.799Z,18.98
2022-10-25T22:11:11.309Z,18.52
2022-10-25T22:13:38.302Z,17.67
2022-10-25T22:16:11.415Z,19.77
2022-10-25T22:18:39.693Z,19.80
2022-10-25T22:21:09.214Z,19.08
2022-10-25T22:23:36.433Z,18.42
2022-10-25T22:26:06.910Z,19.63
2022-10-25T22:28:40.765Z,22.85
2022-10-25T22:31:12.911Z,22.00
2022-10-25T22:33:41.004Z,23.70
2022-10-25T22:36:13.254Z,20.35
2022-10-25T22:38:40.490Z,21.90
2022-10-25T22:41:16.048Z,23.58
2022-10-25T22:43:43.555Z,21.05
2022-10-25T22:46:17.083Z,20.13
2022-10-25T22:48:45.464Z,20.88
2022-10-25T22:51:12.917Z,18.83
2022-10-25T22:53:40.367Z,22.75
2022-10-25T23:06:31.085Z,21.25
2022-10-25T23:09:00.297Z,20.95
2022-10-25T23:11:29.524Z,24.20
2022-10-25T23:14:02.015Z,22.90
2022-10-25T23:16:29.552Z,22.98
2022-10-25T23:18:57.319Z,20.70
2022-10-25T23:21:26.703Z,22.45
2022-10-25T23:23:54.746Z,24.35
2022-10-25T23:26:23.022Z,21.95
2022-10-25T23:28:50.635Z,22.05
2022-10-25T23:31:18.054Z,21.65
2022-10-25T23:33:45.707Z,20.52
2022-10-25T23:36:15.902Z,17.88
2022-10-25T23:38:43.568Z,20.05
2022-10-25T23:41:10.718Z,19.98
2022-10-25T23:43:38.070Z,16.85
2022-10-25T23:46:06.368Z,19.02
2022-10-25T23:48:33.867Z,18.83
2022-10-25T23:51:06.775Z,17.63
2022-10-25T23:53:34.664Z,17.45
2022-10-25T23:56:03.355Z,20.45
2022-10-25T23:58:30.362Z,19.80
